sensor_id;sensor_type;location;lat;lon;timestamp;pressure;altitude;pressure_sealevel;temperature;humidity
70053;BME280;57398;52.032;4.376;2022-12-24T00:01:32;100839.53;;;8.55;100.00
70053;BME280;57398;52.032;4.376;2022-12-24T00:03:59;100845.09;;;8.52;100.00
70053;BME280;57398;52.032;4.376;2022-12-24T00:06:27;100841.53;;;8.46;100.00
70053;BME280;57398;52.032;4.376;2022-12-24T00:08:56;100850.91;;;8.34;100.00
70053;BME280;57398;52.032;4.376;2022-12-24T00:11:24;100849.50;;;8.45;100.00
70053;BME280;57398;52.032;4.376;2022-12-24T00:13:52;100845.53;;;8.42;100.00
70053;BME280;57398;52.032;4.376;2022-12-24T00:16:20;100842.56;;;8.32;100.00
70053;BME280;57398;52.032;4.376;2022-12-24T00:18:48;100853.72;;;8.26;100.00
70053;BME280;57398;52.032;4.376;2022-12-24T00:21:16;100849.94;;;8.22;100.00
70053;BME280;57398;52.032;4.376;2022-12-24T00:23:44;100863.66;;;8.22;100.00
70053;BME280;57398;52.032;4.376;2022-12-24T00:26:13;100856.72;;;8.23;100.00
70053;BME280;57398;52.032;4.376;2022-12-24T00:28:41;100855.88;;;8.29;100.00
70053;BME280;57398;52.032;4.376;2022-12-24T00:31:10;100849.53;;;8.25;100.00
70053;BME280;57398;52.032;4.376;2022-12-24T00:33:38;100864.41;;;8.36;100.00
70053;BME280;57398;52.032;4.376;2022-12-24T00:36:07;100860.66;;;8.32;100.00
70053;BME280;57398;52.032;4.376;2022-12-24T00:38:35;100861.84;;;8.36;100.00
70053;BME280;57398;52.032;4.376;2022-12-24T00:41:05;100871.41;;;8.29;100.00
70053;BME280;57398;52.032;4.376;2022-12-24T00:43:53;100879.59;;;8.26;100.00
70053;BME280;57398;52.032;4.376;2022-12-24T00:46:21;100877.00;;;8.32;100.00
70053;BME280;57398;52.032;4.376;2022-12-24T00:48:49;100884.56;;;8.34;100.00
70053;BME280;57398;52.032;4.376;2022-12-24T00:51:18;100891.31;;;8.35;100.00
70053;BME280;57398;52.032;4.376;2022-12-24T00:53:46;100890.13;;;8.24;100.00
70053;BME280;57398;52.032;4.376;2022-12-24T00:56:15;100887.16;;;8.34;100.00
70053;BME280;57398;52.032;4.376;2022-12-24T00:58:43;100895.53;;;8.29;100.00
70053;BME280;57398;52.032;4.376;2022-12-24T01:01:13;100899.31;;;8.20;100.00
70053;BME280;57398;52.032;4.376;2022-12-24T01:03:41;100897.72;;;8.19;100.00
70053;BME280;57398;52.032;4.376;2022-12-24T01:06:11;100902.50;;;8.15;100.00
70053;BME280;57398;52.032;4.376;2022-12-24T01:08:38;100907.44;;;8.24;100.00
70053;BME280;57398;52.032;4.376;2022-12-24T01:11:08;100918.22;;;8.14;100.00
70053;BME280;57398;52.032;4.376;2022-12-24T01:13:36;100913.81;;;8.08;100.00
70053;BME280;57398;52.032;4.376;2022-12-24T01:16:14;100918.41;;;7.99;100.00
70053;BME280;57398;52.032;4.376;2022-12-24T01:18:42;100917.41;;;7.93;100.00
70053;BME280;57398;52.032;4.376;2022-12-24T01:21:11;100922.41;;;7.95;100.00
70053;BME280;57398;52.032;4.376;2022-12-24T01:23:38;100925.38;;;7.92;100.00
70053;BME280;57398;52.032;4.376;2022-12-24T01:26:06;100928.34;;;7.89;100.00
70053;BME280;57398;52.032;4.376;2022-12-24T01:28:34;100930.34;;;7.87;100.00
70053;BME280;57398;52.032;4.376;2022-12-24T01:31:04;100918.00;;;7.75;100.00
70053;BME280;57398;52.032;4.376;2022-12-24T01:33:37;100930.16;;;7.82;100.00
70053;BME280;57398;52.032;4.376;2022-12-24T01:36:05;100929.94;;;7.76;100.00
70053;BME280;57398;52.032;4.376;2022-12-24T01:38:34;100939.47;;;7.76;100.00
70053;BME280;57398;52.032;4.376;2022-12-24T01:41:01;100945.06;;;7.80;100.00
70053;BME280;57398;52.032;4.376;2022-12-24T01:43:46;100954.81;;;7.78;100.00
70053;BME280;57398;52.032;4.376;2022-12-24T01:46:17;100952.63;;;7.74;100.00
70053;BME280;57398;52.032;4.376;2022-12-24T01:48:49;100957.19;;;7.72;100.00
70053;BME280;57398;52.032;4.376;2022-12-24T01:51:23;100963.94;;;7.73;100.00
70053;BME280;57398;52.032;4.376;2022-12-24T01:53:55;100967.13;;;7.75;100.00
70053;BME280;57398;52.032;4.376;2022-12-24T01:56:25;100960.34;;;7.61;100.00
70053;BME280;57398;52.032;4.376;2022-12-24T01:58:59;100961.91;;;7.62;100.00
70053;BME280;57398;52.032;4.376;2022-12-24T02:01:29;100967.69;;;7.64;100.00
70053;BME280;57398;52.032;4.376;2022-12-24T02:03:58;100970.28;;;7.71;100.00
70053;BME280;57398;52.032;4.376;2022-12-24T02:06:27;100981.84;;;7.75;100.00
70053;BME280;57398;52.032;4.376;2022-12-24T02:08:55;100987.22;;;7.80;100.00
70053;BME280;57398;52.032;4.376;2022-12-24T02:11:23;100993.81;;;7.89;100.00
70053;BME280;57398;52.032;4.376;2022-12-24T02:13:54;100993.00;;;7.89;100.00
70053;BME280;57398;52.032;4.376;2022-12-24T02:16:32;100991.03;;;7.91;100.00
70053;BME280;57398;52.032;4.376;2022-12-24T02:22:06;100996.22;;;8.04;100.00
70053;BME280;57398;52.032;4.376;2022-12-24T02:27:39;101006.78;;;8.09;100.00
70053;BME280;57398;52.032;4.376;2022-12-24T02:30:17;101008.19;;;8.12;100.00
70053;BME280;57398;52.032;4.376;2022-12-24T02:33:15;101004.56;;;8.13;100.00
70053;BME280;57398;52.032;4.376;2022-12-24T02:35:50;101006.97;;;8.14;100.00
70053;BME280;57398;52.032;4.376;2022-12-24T02:38:24;101010.19;;;8.23;100.00
70053;BME280;57398;52.032;4.376;2022-12-24T02:40:55;101009.19;;;8.31;100.00
70053;BME280;57398;52.032;4.376;2022-12-24T02:43:28;101007.38;;;8.31;100.00
70053;BME280;57398;52.032;4.376;2022-12-24T02:46:04;101004.59;;;8.33;100.00
70053;BME280;57398;52.032;4.376;2022-12-24T02:48:35;101013.97;;;8.27;100.00
70053;BME280;57398;52.032;4.376;2022-12-24T02:51:06;101007.97;;;8.27;100.00
70053;BME280;57398;52.032;4.376;2022-12-24T02:53:35;101017.53;;;8.26;100.00
70053;BME280;57398;52.032;4.376;2022-12-24T02:56:41;101023.91;;;8.24;100.00
70053;BME280;57398;52.032;4.376;2022-12-24T03:02:25;101038.66;;;8.30;100.00
70053;BME280;57398;52.032;4.376;2022-12-24T03:05:04;101040.25;;;8.37;100.00
70053;BME280;57398;52.032;4.376;2022-12-24T03:07:37;101033.06;;;8.39;100.00
70053;BME280;57398;52.032;4.376;2022-12-24T03:10:14;101039.28;;;8.45;100.00
70053;BME280;57398;52.032;4.376;2022-12-24T03:12:47;101038.88;;;8.48;100.00
70053;BME280;57398;52.032;4.376;2022-12-24T03:15:19;101052.63;;;8.55;100.00
70053;BME280;57398;52.032;4.376;2022-12-24T03:17:49;101056.41;;;8.53;100.00
70053;BME280;57398;52.032;4.376;2022-12-24T03:20:22;101056.41;;;8.59;100.00
70053;BME280;57398;52.032;4.376;2022-12-24T03:22:52;101057.22;;;8.60;100.00
70053;BME280;57398;52.032;4.376;2022-12-24T03:25:23;101048.66;;;8.59;100.00
70053;BME280;57398;52.032;4.376;2022-12-24T03:27:52;101056.41;;;8.59;100.00
70053;BME280;57398;52.032;4.376;2022-12-24T03:30:25;101050.22;;;8.60;100.00
70053;BME280;57398;52.032;4.376;2022-12-24T03:32:54;101059.00;;;8.59;100.00
70053;BME280;57398;52.032;4.376;2022-12-24T03:35:22;101051.44;;;8.58;100.00
70053;BME280;57398;52.032;4.376;2022-12-24T03:37:50;101049.44;;;8.60;100.00
70053;BME280;57398;52.032;4.376;2022-12-24T03:40:18;101052.81;;;8.60;100.00
70053;BME280;57398;52.032;4.376;2022-12-24T03:42:46;101044.88;;;8.62;100.00
70053;BME280;57398;52.032;4.376;2022-12-24T03:45:14;101054.03;;;8.65;100.00
70053;BME280;57398;52.032;4.376;2022-12-24T03:47:42;101062.56;;;8.65;100.00
70053;BME280;57398;52.032;4.376;2022-12-24T03:50:11;101060.59;;;8.67;100.00
70053;BME280;57398;52.032;4.376;2022-12-24T03:52:39;101046.66;;;8.68;100.00
70053;BME280;57398;52.032;4.376;2022-12-24T03:55:07;101056.81;;;8.63;100.00
70053;BME280;57398;52.032;4.376;2022-12-24T03:57:35;101056.63;;;8.65;100.00
70053;BME280;57398;52.032;4.376;2022-12-24T04:00:03;101058.59;;;8.63;100.00
70053;BME280;57398;52.032;4.376;2022-12-24T04:02:31;101058.59;;;8.63;100.00
70053;BME280;57398;52.032;4.376;2022-12-24T04:04:59;101063.19;;;8.67;100.00
70053;BME280;57398;52.032;4.376;2022-12-24T04:07:28;101059.38;;;8.63;100.00
70053;BME280;57398;52.032;4.376;2022-12-24T04:09:56;101073.53;;;8.67;100.00
70053;BME280;57398;52.032;4.376;2022-12-24T04:12:24;101072.94;;;8.65;100.00
70053;BME280;57398;52.032;4.376;2022-12-24T04:14:52;101068.97;;;8.69;100.00
70053;BME280;57398;52.032;4.376;2022-12-24T04:17:20;101065.59;;;8.69;100.00
70053;BME280;57398;52.032;4.376;2022-12-24T04:19:48;101073.72;;;8.72;100.00
70053;BME280;57398;52.032;4.376;2022-12-24T04:22:15;101077.13;;;8.73;100.00
70053;BME280;57398;52.032;4.376;2022-12-24T04:24:44;101079.69;;;8.79;100.00
70053;BME280;57398;52.032;4.376;2022-12-24T04:27:12;101077.94;;;8.80;100.00
70053;BME280;57398;52.032;4.376;2022-12-24T04:29:40;101081.31;;;8.80;100.00
70053;BME280;57398;52.032;4.376;2022-12-24T04:32:08;101071.13;;;8.79;100.00
70053;BME280;57398;52.032;4.376;2022-12-24T04:34:36;101081.50;;;8.86;100.00
70053;BME280;57398;52.032;4.376;2022-12-24T04:37:04;101087.09;;;8.83;100.00
70053;BME280;57398;52.032;4.376;2022-12-24T04:39:32;101093.06;;;8.83;100.00
70053;BME280;57398;52.032;4.376;2022-12-24T04:42:01;101095.66;;;8.83;100.00
70053;BME280;57398;52.032;4.376;2022-12-24T04:44:29;101097.66;;;8.81;100.00
70053;BME280;57398;52.032;4.376;2022-12-24T04:46:57;101110.00;;;8.79;100.00
70053;BME280;57398;52.032;4.376;2022-12-24T04:49:25;101114.38;;;8.78;100.00
70053;BME280;57398;52.032;4.376;2022-12-24T04:51:52;101109.63;;;8.82;100.00
70053;BME280;57398;52.032;4.376;2022-12-24T04:54:20;101116.97;;;8.85;100.00
70053;BME280;57398;52.032;4.376;2022-12-24T04:56:48;101121.16;;;8.79;100.00
70053;BME280;57398;52.032;4.376;2022-12-24T04:59:17;101100.41;;;8.79;100.00
70053;BME280;57398;52.032;4.376;2022-12-24T05:01:45;101110.59;;;8.81;100.00
70053;BME280;57398;52.032;4.376;2022-12-24T05:04:13;101107.41;;;8.86;100.00
70053;BME280;57398;52.032;4.376;2022-12-24T05:06:41;101108.59;;;8.83;100.00
70053;BME280;57398;52.032;4.376;2022-12-24T05:09:09;101115.38;;;8.84;100.00
70053;BME280;57398;52.032;4.376;2022-12-24T05:11:37;101125.34;;;8.80;100.00
70053;BME280;57398;52.032;4.376;2022-12-24T05:14:04;101130.34;;;8.82;100.00
70053;BME280;57398;52.032;4.376;2022-12-24T05:16:33;101131.91;;;8.83;100.00
70053;BME280;57398;52.032;4.376;2022-12-24T05:19:01;101128.31;;;8.84;100.00
70053;BME280;57398;52.032;4.376;2022-12-24T05:21:29;101123.34;;;8.83;100.00
70053;BME280;57398;52.032;4.376;2022-12-24T05:23:57;101121.38;;;8.78;100.00
70053;BME280;57398;52.032;4.376;2022-12-24T05:26:44;101120.34;;;8.72;100.00
70053;BME280;57398;52.032;4.376;2022-12-24T05:29:13;101125.75;;;8.77;100.00
70053;BME280;57398;52.032;4.376;2022-12-24T05:31:43;101111.78;;;8.78;100.00
70053;BME280;57398;52.032;4.376;2022-12-24T05:34:15;101109.59;;;8.69;100.00
70053;BME280;57398;52.032;4.376;2022-12-24T05:36:43;101118.97;;;8.70;100.00
70053;BME280;57398;52.032;4.376;2022-12-24T05:39:14;101114.97;;;8.67;100.00
70053;BME280;57398;52.032;4.376;2022-12-24T05:41:44;101121.75;;;8.68;100.00
70053;BME280;57398;52.032;4.376;2022-12-24T05:44:13;101132.50;;;8.58;100.00
70053;BME280;57398;52.032;4.376;2022-12-24T05:46:43;101137.88;;;8.57;100.00
70053;BME280;57398;52.032;4.376;2022-12-24T05:49:11;101138.88;;;8.56;100.00
70053;BME280;57398;52.032;4.376;2022-12-24T05:51:40;101134.06;;;8.46;100.00
70053;BME280;57398;52.032;4.376;2022-12-24T05:54:08;101135.28;;;8.44;100.00
70053;BME280;57398;52.032;4.376;2022-12-24T05:56:36;101139.78;;;8.35;100.00
70053;BME280;57398;52.032;4.376;2022-12-24T05:59:03;101149.34;;;8.28;100.00
70053;BME280;57398;52.032;4.376;2022-12-24T06:01:31;101154.91;;;8.25;100.00
70053;BME280;57398;52.032;4.376;2022-12-24T06:04:00;101151.88;;;8.14;100.00
70053;BME280;57398;52.032;4.376;2022-12-24T06:06:28;101158.84;;;8.14;100.00
70053;BME280;57398;52.032;4.376;2022-12-24T06:08:56;101163.22;;;8.13;100.00
70053;BME280;57398;52.032;4.376;2022-12-24T06:11:26;101166.78;;;8.12;100.00
70053;BME280;57398;52.032;4.376;2022-12-24T06:13:55;101168.75;;;8.04;100.00
70053;BME280;57398;52.032;4.376;2022-12-24T06:16:24;101179.91;;;8.04;100.00
70053;BME280;57398;52.032;4.376;2022-12-24T06:18:53;101181.72;;;8.10;100.00
70053;BME280;57398;52.032;4.376;2022-12-24T06:21:22;101178.75;;;8.13;100.00
70053;BME280;57398;52.032;4.376;2022-12-24T06:23:50;101182.50;;;8.04;100.00
70053;BME280;57398;52.032;4.376;2022-12-24T06:26:20;101186.88;;;8.10;100.00
70053;BME280;57398;52.032;4.376;2022-12-24T06:28:49;101190.09;;;8.12;100.00
70053;BME280;57398;52.032;4.376;2022-12-24T06:31:19;101199.06;;;8.16;100.00
70053;BME280;57398;52.032;4.376;2022-12-24T06:33:47;101194.47;;;8.12;100.00
70053;BME280;57398;52.032;4.376;2022-12-24T06:36:18;101189.09;;;8.13;100.00
70053;BME280;57398;52.032;4.376;2022-12-24T06:38:48;101180.72;;;8.05;100.00
70053;BME280;57398;52.032;4.376;2022-12-24T06:41:17;101186.81;;;7.97;100.00
70053;BME280;57398;52.032;4.376;2022-12-24T06:43:46;101190.78;;;7.86;100.00
70053;BME280;57398;52.032;4.376;2022-12-24T06:46:15;101191.88;;;7.70;100.00
70053;BME280;57398;52.032;4.376;2022-12-24T06:48:44;101186.72;;;7.70;100.00
70053;BME280;57398;52.032;4.376;2022-12-24T06:51:13;101191.63;;;7.59;100.00
70053;BME280;57398;52.032;4.376;2022-12-24T06:53:42;101194.38;;;7.57;100.00
70053;BME280;57398;52.032;4.376;2022-12-24T06:56:12;101189.53;;;7.47;100.00
70053;BME280;57398;52.032;4.376;2022-12-24T06:58:40;101201.69;;;7.47;100.00
70053;BME280;57398;52.032;4.376;2022-12-24T07:01:10;101216.00;;;7.49;100.00
70053;BME280;57398;52.032;4.376;2022-12-24T07:03:38;101220.75;;;7.46;100.00
70053;BME280;57398;52.032;4.376;2022-12-24T07:06:10;101222.03;;;7.35;100.00
70053;BME280;57398;52.032;4.376;2022-12-24T07:08:41;101220.47;;;7.34;100.00
70053;BME280;57398;52.032;4.376;2022-12-24T07:11:11;101216.41;;;7.25;100.00
70053;BME280;57398;52.032;4.376;2022-12-24T07:13:38;101226.63;;;7.33;100.00
70053;BME280;57398;52.032;4.376;2022-12-24T07:16:06;101222.25;;;7.33;100.00
70053;BME280;57398;52.032;4.376;2022-12-24T07:18:34;101226.25;;;7.36;100.00
70053;BME280;57398;52.032;4.376;2022-12-24T07:21:03;101236.03;;;7.41;100.00
70053;BME280;57398;52.032;4.376;2022-12-24T07:23:32;101231.66;;;7.41;100.00
70053;BME280;57398;52.032;4.376;2022-12-24T07:26:19;101234.41;;;7.40;100.00
70053;BME280;57398;52.032;4.376;2022-12-24T07:29:01;101248.50;;;7.37;100.00
70053;BME280;57398;52.032;4.376;2022-12-24T07:31:28;101252.50;;;7.40;100.00
70053;BME280;57398;52.032;4.376;2022-12-24T07:33:56;101249.19;;;7.46;100.00
70053;BME280;57398;52.032;4.376;2022-12-24T07:36:24;101259.91;;;7.43;100.00
70053;BME280;57398;52.032;4.376;2022-12-24T07:38:53;101268.88;;;7.47;100.00
70053;BME280;57398;52.032;4.376;2022-12-24T07:41:23;101269.47;;;7.49;100.00
70053;BME280;57398;52.032;4.376;2022-12-24T07:43:51;101279.34;;;7.39;100.00
70053;BME280;57398;52.032;4.376;2022-12-24T07:46:18;101284.94;;;7.42;100.00
70053;BME280;57398;52.032;4.376;2022-12-24T07:48:46;101292.25;;;7.39;100.00
70053;BME280;57398;52.032;4.376;2022-12-24T07:51:14;101298.38;;;7.31;100.00
70053;BME280;57398;52.032;4.376;2022-12-24T07:53:42;101299.78;;;7.33;100.00
70053;BME280;57398;52.032;4.376;2022-12-24T07:56:13;101295.16;;;7.29;100.00
70053;BME280;57398;52.032;4.376;2022-12-24T07:58:42;101313.50;;;7.34;100.00
70053;BME280;57398;52.032;4.376;2022-12-24T08:01:10;101322.66;;;7.37;100.00
70053;BME280;57398;52.032;4.376;2022-12-24T08:03:38;101328.22;;;7.33;100.00
70053;BME280;57398;52.032;4.376;2022-12-24T08:06:06;101324.28;;;7.38;100.00
70053;BME280;57398;52.032;4.376;2022-12-24T08:08:34;101322.28;;;7.40;100.00
70053;BME280;57398;52.032;4.376;2022-12-24T08:11:04;101325.88;;;7.39;100.00
70053;BME280;57398;52.032;4.376;2022-12-24T08:13:32;101326.31;;;7.42;100.00
70053;BME280;57398;52.032;4.376;2022-12-24T08:16:01;101330.91;;;7.47;100.00
70053;BME280;57398;52.032;4.376;2022-12-24T08:18:29;101344.19;;;7.44;100.00
70053;BME280;57398;52.032;4.376;2022-12-24T08:20:57;101343.22;;;7.45;100.00
70053;BME280;57398;52.032;4.376;2022-12-24T08:23:25;101344.09;;;7.52;100.00
70053;BME280;57398;52.032;4.376;2022-12-24T08:25:52;101346.97;;;7.64;100.00
70053;BME280;57398;52.032;4.376;2022-12-24T08:28:20;101354.56;;;7.65;100.00
70053;BME280;57398;52.032;4.376;2022-12-24T08:30:49;101362.16;;;7.73;100.00
70053;BME280;57398;52.032;4.376;2022-12-24T08:33:19;101367.34;;;7.73;100.00
70053;BME280;57398;52.032;4.376;2022-12-24T08:35:48;101372.16;;;7.76;100.00
70053;BME280;57398;52.032;4.376;2022-12-24T08:38:16;101384.56;;;7.88;100.00
70053;BME280;57398;52.032;4.376;2022-12-24T08:40:44;101386.03;;;7.97;100.00
70053;BME280;57398;52.032;4.376;2022-12-24T08:43:14;101388.09;;;8.08;100.00
70053;BME280;57398;52.032;4.376;2022-12-24T08:45:42;101404.69;;;8.14;100.00
70053;BME280;57398;52.032;4.376;2022-12-24T08:48:10;101396.75;;;8.22;100.00
70053;BME280;57398;52.032;4.376;2022-12-24T08:50:39;101402.97;;;8.28;100.00
70053;BME280;57398;52.032;4.376;2022-12-24T08:53:08;101405.00;;;8.32;100.00
70053;BME280;57398;52.032;4.376;2022-12-24T08:55:36;101410.78;;;8.34;100.00
70053;BME280;57398;52.032;4.376;2022-12-24T08:58:05;101411.03;;;8.39;100.00
70053;BME280;57398;52.032;4.376;2022-12-24T09:00:32;101413.69;;;8.46;100.00
70053;BME280;57398;52.032;4.376;2022-12-24T09:03:00;101422.28;;;8.53;100.00
70053;BME280;57398;52.032;4.376;2022-12-24T09:05:28;101417.34;;;8.58;100.00
70053;BME280;57398;52.032;4.376;2022-12-24T09:07:57;101416.16;;;8.61;100.00
70053;BME280;57398;52.032;4.376;2022-12-24T09:10:25;101416.16;;;8.61;100.00
70053;BME280;57398;52.032;4.376;2022-12-24T09:12:52;101408.41;;;8.68;100.00
70053;BME280;57398;52.032;4.376;2022-12-24T09:15:21;101412.84;;;8.74;100.00
70053;BME280;57398;52.032;4.376;2022-12-24T09:17:50;101410.25;;;8.74;100.00
70053;BME280;57398;52.032;4.376;2022-12-24T09:20:18;101422.19;;;8.75;100.00
70053;BME280;57398;52.032;4.376;2022-12-24T09:22:46;101426.97;;;8.71;100.00
70053;BME280;57398;52.032;4.376;2022-12-24T09:25:16;101435.59;;;8.78;100.00
70053;BME280;57398;52.032;4.376;2022-12-24T09:27:43;101434.41;;;8.81;100.00
70053;BME280;57398;52.032;4.376;2022-12-24T09:30:12;101435.81;;;8.84;100.00
70053;BME280;57398;52.032;4.376;2022-12-24T09:32:41;101437.19;;;8.86;100.00
70053;BME280;57398;52.032;4.376;2022-12-24T09:35:09;101435.84;;;8.90;100.00
70053;BME280;57398;52.032;4.376;2022-12-24T09:37:36;101437.28;;;8.99;100.00
70053;BME280;57398;52.032;4.376;2022-12-24T09:40:05;101444.06;;;9.00;100.00
70053;BME280;57398;52.032;4.376;2022-12-24T09:42:43;101447.84;;;9.05;100.00
70053;BME280;57398;52.032;4.376;2022-12-24T09:45:18;101453.06;;;9.11;100.00
70053;BME280;57398;52.032;4.376;2022-12-24T09:47:51;101453.09;;;9.18;100.00
70053;BME280;57398;52.032;4.376;2022-12-24T09:50:29;101444.75;;;9.29;100.00
70053;BME280;57398;52.032;4.376;2022-12-24T09:53:02;101438.56;;;9.23;100.00
70053;BME280;57398;52.032;4.376;2022-12-24T09:55:33;101445.94;;;9.20;100.00
70053;BME280;57398;52.032;4.376;2022-12-24T09:58:06;101447.69;;;9.13;100.00
70053;BME280;57398;52.032;4.376;2022-12-24T10:00:38;101439.72;;;9.08;100.00
70053;BME280;57398;52.032;4.376;2022-12-24T10:03:16;101446.88;;;9.06;100.00
70053;BME280;57398;52.032;4.376;2022-12-24T10:05:50;101441.31;;;9.09;100.00
70053;BME280;57398;52.032;4.376;2022-12-24T10:08:25;101444.53;;;9.17;100.00
70053;BME280;57398;52.032;4.376;2022-12-24T10:10:59;101445.31;;;9.18;100.00
70053;BME280;57398;52.032;4.376;2022-12-24T10:13:42;101444.41;;;9.32;100.00
70053;BME280;57398;52.032;4.376;2022-12-24T10:16:17;101442.59;;;9.33;100.00
70053;BME280;57398;52.032;4.376;2022-12-24T10:18:55;101437.19;;;9.34;100.00
70053;BME280;57398;52.032;4.376;2022-12-24T10:21:33;101442.78;;;9.31;100.00
70053;BME280;57398;52.032;4.376;2022-12-24T10:24:05;101448.00;;;9.38;100.00
70053;BME280;57398;52.032;4.376;2022-12-24T10:26:42;101447.41;;;9.42;100.00
70053;BME280;57398;52.032;4.376;2022-12-24T10:29:15;101458.19;;;9.39;100.00
70053;BME280;57398;52.032;4.376;2022-12-24T10:31:53;101453.75;;;9.33;100.00
70053;BME280;57398;52.032;4.376;2022-12-24T10:34:24;101458.31;;;9.25;100.00
70053;BME280;57398;52.032;4.376;2022-12-24T10:36:55;101456.50;;;9.25;100.00
70053;BME280;57398;52.032;4.376;2022-12-24T10:39:25;101454.91;;;9.17;100.00
70053;BME280;57398;52.032;4.376;2022-12-24T10:41:54;101470.81;;;9.08;100.00
70053;BME280;57398;52.032;4.376;2022-12-24T10:44:26;101470.78;;;9.01;100.00
70053;BME280;57398;52.032;4.376;2022-12-24T10:46:55;101472.63;;;9.14;100.00
70053;BME280;57398;52.032;4.376;2022-12-24T10:49:30;101483.63;;;9.22;100.00
70053;BME280;57398;52.032;4.376;2022-12-24T10:52:20;101476.09;;;9.34;100.00
70053;BME280;57398;52.032;4.376;2022-12-24T10:55:11;101482.53;;;9.45;100.00
70053;BME280;57398;52.032;4.376;2022-12-24T10:58:14;101476.31;;;9.39;100.00
70053;BME280;57398;52.032;4.376;2022-12-24T11:01:04;101483.47;;;9.31;100.00
70053;BME280;57398;52.032;4.376;2022-12-24T11:03:59;101486.47;;;9.34;100.00
70053;BME280;57398;52.032;4.376;2022-12-24T11:06:51;101478.50;;;9.36;100.00
70053;BME280;57398;52.032;4.376;2022-12-24T11:09:40;101474.94;;;9.37;100.00
70053;BME280;57398;52.032;4.376;2022-12-24T11:12:31;101474.50;;;9.33;100.00
70053;BME280;57398;52.032;4.376;2022-12-24T11:15:23;101473.09;;;9.31;100.00
70053;BME280;57398;52.032;4.376;2022-12-24T11:18:14;101466.69;;;9.27;100.00
70053;BME280;57398;52.032;4.376;2022-12-24T11:21:03;101471.69;;;9.28;100.00
70053;BME280;57398;52.032;4.376;2022-12-24T11:23:55;101475.84;;;9.22;100.00
70053;BME280;57398;52.032;4.376;2022-12-24T11:26:44;101483.47;;;9.31;100.00
70053;BME280;57398;52.032;4.376;2022-12-24T11:29:32;101486.44;;;9.28;100.00
70053;BME280;57398;52.032;4.376;2022-12-24T11:32:21;101491.25;;;9.31;100.00
70053;BME280;57398;52.032;4.376;2022-12-24T11:35:15;101490.81;;;9.27;100.00
70053;BME280;57398;52.032;4.376;2022-12-24T11:38:09;101481.66;;;9.25;100.00
70053;BME280;57398;52.032;4.376;2022-12-24T11:41:01;101489.25;;;9.26;100.00
70053;BME280;57398;52.032;4.376;2022-12-24T11:43:58;101489.44;;;9.31;100.00
70053;BME280;57398;52.032;4.376;2022-12-24T11:46:49;101497.44;;;9.36;100.00
70053;BME280;57398;52.032;4.376;2022-12-24T11:49:42;101490.09;;;9.40;100.00
70053;BME280;57398;52.032;4.376;2022-12-24T11:52:31;101484.53;;;9.50;100.00
70053;BME280;57398;52.032;4.376;2022-12-24T11:55:23;101494.47;;;9.39;100.00
70053;BME280;57398;52.032;4.376;2022-12-24T11:58:21;101500.66;;;9.38;100.00
70053;BME280;57398;52.032;4.376;2022-12-24T12:01:16;101495.88;;;9.42;100.00
70053;BME280;57398;52.032;4.376;2022-12-24T12:04:11;101495.09;;;9.41;100.00
70053;BME280;57398;52.032;4.376;2022-12-24T12:07:03;101495.47;;;9.38;100.00
70053;BME280;57398;52.032;4.376;2022-12-24T12:10:05;101490.06;;;9.33;100.00
70053;BME280;57398;52.032;4.376;2022-12-24T12:12:57;101500.00;;;9.30;100.00
70053;BME280;57398;52.032;4.376;2022-12-24T12:15:49;101495.44;;;9.32;100.00
70053;BME280;57398;52.032;4.376;2022-12-24T12:18:40;101496.03;;;9.34;100.00
70053;BME280;57398;52.032;4.376;2022-12-24T12:21:34;101493.84;;;9.31;100.00
70053;BME280;57398;52.032;4.376;2022-12-24T12:24:28;101506.03;;;9.37;100.00
70053;BME280;57398;52.032;4.376;2022-12-24T12:27:27;101516.81;;;9.40;100.00
70053;BME280;57398;52.032;4.376;2022-12-24T12:30:19;101515.22;;;9.39;100.00
70053;BME280;57398;52.032;4.376;2022-12-24T12:33:14;101516.81;;;9.40;100.00
70053;BME280;57398;52.032;4.376;2022-12-24T12:36:07;101518.81;;;9.45;100.00
70053;BME280;57398;52.032;4.376;2022-12-24T12:38:56;101513.25;;;9.41;100.00
70053;BME280;57398;52.032;4.376;2022-12-24T12:41:51;101520.00;;;9.42;100.00
70053;BME280;57398;52.032;4.376;2022-12-24T12:44:49;101521.81;;;9.42;100.00
70053;BME280;57398;52.032;4.376;2022-12-24T12:47:53;101531.16;;;9.36;100.00
70053;BME280;57398;52.032;4.376;2022-12-24T12:50:47;101534.31;;;9.32;100.00
70053;BME280;57398;52.032;4.376;2022-12-24T12:53:49;101530.94;;;9.31;100.00
70053;BME280;57398;52.032;4.376;2022-12-24T12:56:44;101527.38;;;9.32;100.00
70053;BME280;57398;52.032;4.376;2022-12-24T12:59:37;101523.75;;;9.33;100.00
70053;BME280;57398;52.032;4.376;2022-12-24T13:02:49;101510.25;;;9.44;100.00
70053;BME280;57398;52.032;4.376;2022-12-24T13:06:25;101522.63;;;9.49;100.00
70053;BME280;57398;52.032;4.376;2022-12-24T13:09:33;101515.84;;;9.48;100.00
70053;BME280;57398;52.032;4.376;2022-12-24T13:12:42;101536.81;;;9.53;100.00
70053;BME280;57398;52.032;4.376;2022-12-24T13:19:07;101537.44;;;9.62;100.00
70053;BME280;57398;52.032;4.376;2022-12-24T13:22:00;101539.69;;;9.72;100.00
70053;BME280;57398;52.032;4.376;2022-12-24T13:24:50;101546.09;;;9.76;100.00
70053;BME280;57398;52.032;4.376;2022-12-24T13:27:38;101540.69;;;9.77;100.00
70053;BME280;57398;52.032;4.376;2022-12-24T13:30:36;101547.47;;;9.78;100.00
70053;BME280;57398;52.032;4.376;2022-12-24T13:33:45;101548.47;;;9.77;100.00
70053;BME280;57398;52.032;4.376;2022-12-24T13:37:00;101548.25;;;9.72;100.00
70053;BME280;57398;52.032;4.376;2022-12-24T13:40:16;101552.84;;;9.70;100.00
70053;BME280;57398;52.032;4.376;2022-12-24T13:43:09;101558.41;;;9.67;100.00